createdAt,value
2022-10-06T00:00:02.967Z,85.00
2022-10-06T00:02:37.547Z,85.22
2022-10-06T00:05:10.782Z,85.29
2022-10-06T00:07:44.538Z,85.20
2022-10-06T00:10:18.679Z,85.26
2022-10-06T00:12:53.534Z,85.32
2022-10-06T00:15:30.888Z,85.38
2022-10-06T00:18:04.286Z,85.44
2022-10-06T00:20:37.495Z,85.81
2022-10-06T00:23:11.042Z,86.06
2022-10-06T00:25:44.876Z,86.15
2022-10-06T00:28:18.264Z,86.16
2022-10-06T00:30:52.892Z,86.15
2022-10-06T00:33:26.094Z,86.28
2022-10-06T00:36:01.125Z,86.23
2022-10-06T00:38:35.438Z,86.02
2022-10-06T00:41:08.513Z,85.96
2022-10-06T00:43:59.038Z,86.03
2022-10-06T00:46:47.949Z,86.04
2022-10-06T00:49:25.815Z,86.08
2022-10-06T00:52:05.847Z,86.35
2022-10-06T00:54:39.319Z,86.46
2022-10-06T00:57:12.389Z,86.41
2022-10-06T00:59:46.294Z,86.49
2022-10-06T01:02:26.667Z,86.19
2022-10-06T01:05:03.791Z,86.13
2022-10-06T01:07:36.782Z,86.08
2022-10-06T01:10:10.457Z,86.19
2022-10-06T01:12:43.108Z,86.11
2022-10-06T01:15:17.782Z,86.08
2022-10-06T01:18:15.013Z,86.24
2022-10-06T01:20:58.989Z,86.35
2022-10-06T01:23:34.351Z,86.28
2022-10-06T01:26:11.670Z,86.44
2022-10-06T01:28:45.085Z,86.38
2022-10-06T01:31:18.607Z,86.39
2022-10-06T01:33:56.273Z,86.54
2022-10-06T01:36:29.529Z,86.44
2022-10-06T01:39:02.442Z,86.38
2022-10-06T01:41:36.039Z,86.27
2022-10-06T01:44:09.110Z,86.20
2022-10-06T01:46:42.691Z,86.23
2022-10-06T01:49:15.667Z,86.20
2022-10-06T01:51:48.906Z,86.41
2022-10-06T01:54:21.540Z,86.54
2022-10-06T01:56:55.093Z,86.44
2022-10-06T01:59:28.977Z,86.26
2022-10-06T02:02:02.485Z,86.24
2022-10-06T02:04:37.281Z,86.16
2022-10-06T02:07:10.197Z,86.08
2022-10-06T02:09:47.988Z,86.05
2022-10-06T02:12:22.158Z,86.27
2022-10-06T02:14:55.455Z,86.27
2022-10-06T02:17:29.756Z,86.38
2022-10-06T02:20:02.527Z,86.41
2022-10-06T02:22:44.099Z,86.34
2022-10-06T02:25:18.362Z,86.35
2022-10-06T02:27:51.609Z,86.43
2022-10-06T02:30:24.541Z,86.39
2022-10-06T02:32:58.526Z,86.26
2022-10-06T02:35:31.355Z,86.48
2022-10-06T02:38:04.445Z,86.59
2022-10-06T02:40:37.824Z,86.42
2022-10-06T02:43:10.510Z,86.56
2022-10-06T02:45:43.954Z,86.67
2022-10-06T02:48:17.703Z,86.68
2022-10-06T02:51:05.070Z,86.66
2022-10-06T02:53:39.015Z,86.57
2022-10-06T02:56:18.248Z,86.64
2022-10-06T02:58:54.071Z,86.78
2022-10-06T03:01:30.167Z,86.87
2022-10-06T03:04:07.619Z,87.00
2022-10-06T03:06:41.820Z,87.02
2022-10-06T03:09:28.909Z,87.14
2022-10-06T03:12:02.254Z,87.36
2022-10-06T03:14:41.255Z,87.48
2022-10-06T03:17:14.917Z,87.60
2022-10-06T03:19:49.629Z,87.78
2022-10-06T03:22:22.532Z,87.87
2022-10-06T03:24:59.918Z,88.08
2022-10-06T03:27:32.775Z,88.11
2022-10-06T03:30:07.189Z,88.46
2022-10-06T03:32:41.878Z,88.68
2022-10-06T03:35:15.295Z,88.93
2022-10-06T03:37:48.750Z,89.27
2022-10-06T03:40:22.116Z,89.43
2022-10-06T03:42:55.256Z,89.31
2022-10-06T03:45:28.145Z,89.16
2022-10-06T03:48:01.075Z,89.13
2022-10-06T03:50:36.829Z,89.05
2022-10-06T03:53:10.493Z,89.13
2022-10-06T03:55:43.433Z,89.36
2022-10-06T03:58:19.451Z,89.69
2022-10-06T04:01:05.546Z,89.67
2022-10-06T04:03:38.702Z,89.82
2022-10-06T04:06:17.186Z,89.82
2022-10-06T04:08:51.759Z,89.84
2022-10-06T04:11:30.319Z,89.92
2022-10-06T04:14:08.101Z,89.90
2022-10-06T04:16:47.399Z,89.72
2022-10-06T04:19:22.347Z,89.61
2022-10-06T04:21:58.541Z,89.37
2022-10-06T04:24:31.644Z,89.25
2022-10-06T04:27:22.593Z,88.93
2022-10-06T04:29:57.343Z,89.01
2022-10-06T04:32:30.932Z,88.96
2022-10-06T04:35:03.849Z,89.00
2022-10-06T04:37:37.145Z,88.84
2022-10-06T04:40:11.223Z,88.80
2022-10-06T04:42:45.859Z,88.84
2022-10-06T04:45:20.253Z,88.93
2022-10-06T04:47:53.805Z,88.93
2022-10-06T04:50:26.633Z,88.93
2022-10-06T04:53:13.236Z,89.02
2022-10-06T04:55:46.841Z,89.07
2022-10-06T04:58:19.799Z,89.01
2022-10-06T05:00:53.017Z,88.74
2022-10-06T05:03:26.646Z,88.60
2022-10-06T05:06:15.465Z,88.58
2022-10-06T05:09:03.141Z,88.35
2022-10-06T05:11:37.667Z,88.10
2022-10-06T05:14:12.082Z,87.76
2022-10-06T05:16:47.384Z,87.54
2022-10-06T05:19:21.362Z,87.47
2022-10-06T05:21:54.259Z,87.33
2022-10-06T05:24:28.766Z,87.27
2022-10-06T05:27:03.314Z,87.35
2022-10-06T05:29:37.646Z,87.38
2022-10-06T05:32:12.184Z,87.20
2022-10-06T05:34:46.024Z,87.14
2022-10-06T05:37:19.243Z,87.18
2022-10-06T05:39:52.268Z,86.93
2022-10-06T05:42:29.534Z,87.09
2022-10-06T05:45:00.637Z,87.10
2022-10-06T05:47:33.798Z,86.83
2022-10-06T05:50:08.371Z,86.70
2022-10-06T05:52:42.306Z,86.64
2022-10-06T05:55:16.013Z,86.74
2022-10-06T05:57:49.111Z,86.72
2022-10-06T06:00:22.648Z,86.55
2022-10-06T06:02:57.060Z,86.47
2022-10-06T06:05:30.299Z,86.45
2022-10-06T06:08:03.219Z,86.53
2022-10-06T06:10:36.462Z,86.42
2022-10-06T06:13:09.364Z,86.06
2022-10-06T06:16:02.200Z,85.75
2022-10-06T06:18:38.726Z,85.09
2022-10-06T06:21:13.682Z,84.42
2022-10-06T06:23:48.720Z,84.21
2022-10-06T06:26:29.830Z,84.08
2022-10-06T06:29:04.201Z,83.68
2022-10-06T06:31:43.030Z,83.27
2022-10-06T06:34:16.117Z,82.93
2022-10-06T06:36:53.280Z,82.58
2022-10-06T06:39:26.839Z,82.20
2022-10-06T06:42:01.721Z,81.52
2022-10-06T06:44:43.667Z,80.91
2022-10-06T06:47:25.979Z,80.02
2022-10-06T06:49:59.257Z,79.57
2022-10-06T06:52:33.076Z,79.16
2022-10-06T06:55:06.782Z,78.96
2022-10-06T06:57:39.660Z,78.72
2022-10-06T07:00:14.241Z,77.97
2022-10-06T07:02:48.595Z,78.04
2022-10-06T07:05:21.553Z,77.94
2022-10-06T07:07:55.939Z,77.89
2022-10-06T07:10:29.278Z,77.83
2022-10-06T07:13:02.847Z,77.79
2022-10-06T07:15:54.109Z,76.45
2022-10-06T07:18:44.585Z,75.64
2022-10-06T07:21:35.967Z,74.95
2022-10-06T07:24:28.108Z,74.83
2022-10-06T07:27:02.166Z,74.71
2022-10-06T07:29:35.338Z,73.96
2022-10-06T07:32:08.213Z,73.70
2022-10-06T07:37:14.547Z,73.43
2022-10-06T07:39:49.919Z,72.96
2022-10-06T07:42:24.166Z,72.43
2022-10-06T07:45:15.917Z,72.73
2022-10-06T07:47:48.686Z,72.47
2022-10-06T07:50:21.854Z,72.07
2022-10-06T07:52:55.083Z,71.74
2022-10-06T07:55:28.247Z,71.91
2022-10-06T07:58:20.448Z,71.80
2022-10-06T08:00:55.343Z,71.62
2022-10-06T08:03:29.150Z,70.93
2022-10-06T08:06:03.786Z,70.11
2022-10-06T08:08:38.083Z,69.68
2022-10-06T08:11:12.881Z,69.12
2022-10-06T08:13:48.794Z,69.27
2022-10-06T08:16:24.732Z,68.95
2022-10-06T08:19:00.033Z,69.07
2022-10-06T08:21:36.306Z,69.07
2022-10-06T08:24:10.058Z,68.37
2022-10-06T08:26:44.270Z,67.59
2022-10-06T08:29:17.387Z,67.61
2022-10-06T08:31:50.327Z,67.80
2022-10-06T08:34:23.851Z,67.62
2022-10-06T08:37:18.801Z,67.96
2022-10-06T08:39:32.540Z,67.46
2022-10-06T08:42:06.284Z,67.02
2022-10-06T08:44:49.171Z,66.59
2022-10-06T08:47:24.739Z,65.79
2022-10-06T08:49:58.553Z,65.28
2022-10-06T08:52:37.006Z,64.94
2022-10-06T08:55:40.515Z,65.39
2022-10-06T08:58:23.438Z,65.19
2022-10-06T09:01:04.644Z,65.56
2022-10-06T09:03:39.157Z,65.66
2022-10-06T09:06:42.928Z,64.78
2022-10-06T09:09:26.458Z,64.22
2022-10-06T09:12:21.142Z,64.62
2022-10-06T09:15:23.979Z,64.77
2022-10-06T09:18:22.619Z,64.51
2022-10-06T09:21:10.260Z,64.59
2022-10-06T09:23:48.843Z,64.55
2022-10-06T09:26:26.808Z,64.35
2022-10-06T09:29:00.365Z,64.18
2022-10-06T09:31:47.211Z,63.77
2022-10-06T09:34:45.802Z,63.90
2022-10-06T09:37:18.772Z,64.44
2022-10-06T09:39:53.780Z,64.49
2022-10-06T09:42:33.898Z,63.95
2022-10-06T09:45:17.335Z,63.57
2022-10-06T09:47:50.588Z,62.68
2022-10-06T09:50:29.001Z,62.76
2022-10-06T09:53:15.609Z,63.04
2022-10-06T09:55:52.384Z,62.69
2022-10-06T09:58:33.000Z,63.08
2022-10-06T10:01:09.718Z,62.77
2022-10-06T10:06:32.620Z,62.12
2022-10-06T10:09:24.132Z,61.33
2022-10-06T10:12:25.259Z,61.60
2022-10-06T10:15:14.568Z,61.56
2022-10-06T10:17:56.966Z,62.57
2022-10-06T10:20:37.783Z,62.19
2022-10-06T10:23:31.669Z,61.45
2022-10-06T10:26:28.063Z,61.54
2022-10-06T10:29:34.744Z,60.77
2022-10-06T10:32:27.733Z,60.66
2022-10-06T10:35:18.384Z,60.20
2022-10-06T10:38:02.426Z,60.14
2022-10-06T10:40:49.350Z,60.36
2022-10-06T10:43:41.154Z,59.91
2022-10-06T10:46:33.262Z,60.05
2022-10-06T10:49:28.534Z,60.46
2022-10-06T10:52:22.751Z,59.48
2022-10-06T10:55:31.671Z,58.88
2022-10-06T10:58:38.462Z,58.60
2022-10-06T11:01:51.459Z,58.14
2022-10-06T11:04:25.060Z,58.61
2022-10-06T11:07:12.436Z,58.77
2022-10-06T11:10:03.362Z,58.96
2022-10-06T11:13:11.545Z,58.70
2022-10-06T11:16:23.005Z,56.30
2022-10-06T11:19:27.811Z,55.89
2022-10-06T11:22:10.403Z,55.78
2022-10-06T11:25:11.825Z,56.38
2022-10-06T11:28:07.050Z,56.19
2022-10-06T11:30:57.833Z,55.37
2022-10-06T11:33:53.080Z,54.36
2022-10-06T11:36:39.903Z,54.55
2022-10-06T11:39:56.488Z,54.47
2022-10-06T11:42:50.839Z,54.01
2022-10-06T11:45:28.429Z,51.54
2022-10-06T11:48:27.168Z,50.98
2022-10-06T11:51:19.621Z,51.30
2022-10-06T11:53:53.441Z,51.25
2022-10-06T11:56:40.145Z,51.27
2022-10-06T11:59:16.858Z,51.44
2022-10-06T12:01:54.845Z,50.72
2022-10-06T12:04:28.446Z,50.79
2022-10-06T12:07:02.094Z,50.03
2022-10-06T12:09:51.698Z,49.75
2022-10-06T12:12:30.180Z,49.39
2022-10-06T12:17:05.576Z,50.01
2022-10-06T12:18:26.283Z,49.34
2022-10-06T12:21:28.055Z,49.77
2022-10-06T12:24:17.578Z,49.63
2022-10-06T12:27:25.921Z,49.95
2022-10-06T12:30:09.645Z,49.26
2022-10-06T12:32:51.044Z,49.76
2022-10-06T12:35:36.299Z,49.36
2022-10-06T12:38:34.843Z,49.39
2022-10-06T12:41:15.433Z,49.48
2022-10-06T12:43:57.487Z,48.94
2022-10-06T12:46:42.684Z,49.34
2022-10-06T12:49:41.829Z,49.57
2022-10-06T12:52:40.829Z,49.65
2022-10-06T12:55:30.147Z,49.55
2022-10-06T12:58:03.185Z,49.39
2022-10-06T13:00:43.942Z,48.79
2022-10-06T13:42:23.624Z,48.17
2022-10-06T13:45:00.510Z,48.93
2022-10-06T13:47:34.523Z,49.23
2022-10-06T13:50:19.771Z,49.33
2022-10-06T13:52:50.919Z,49.39
2022-10-06T13:55:29.438Z,49.43
2022-10-06T13:58:09.390Z,49.76
2022-10-06T14:00:57.961Z,50.27
2022-10-06T14:03:37.353Z,50.70
2022-10-06T14:06:21.008Z,50.88
2022-10-06T14:08:58.676Z,51.04
2022-10-06T14:11:32.320Z,51.19
2022-10-06T14:14:07.480Z,51.21
2022-10-06T14:16:40.461Z,51.57
2022-10-06T14:19:34.705Z,51.59
2022-10-06T14:22:14.278Z,51.69
2022-10-06T14:24:52.595Z,51.98
2022-10-06T14:27:26.255Z,52.18
2022-10-06T14:29:59.786Z,52.57
2022-10-06T14:32:33.372Z,52.49
2022-10-06T14:35:09.742Z,52.79
2022-10-06T14:37:42.957Z,53.23
2022-10-06T14:40:17.367Z,53.60
2022-10-06T14:42:51.000Z,53.92
2022-10-06T14:45:23.861Z,54.22
2022-10-06T14:47:57.031Z,54.66
2022-10-06T14:50:31.116Z,55.07
2022-10-06T14:53:05.950Z,55.53
2022-10-06T14:55:39.830Z,55.98
2022-10-06T14:58:12.894Z,56.46
2022-10-06T15:00:46.058Z,56.89
2022-10-06T15:03:19.074Z,57.47
2022-10-06T15:06:10.060Z,58.09
2022-10-06T15:08:43.482Z,58.53
2022-10-06T15:11:17.191Z,59.15
2022-10-06T15:13:50.512Z,59.76
2022-10-06T15:16:24.639Z,60.49
2022-10-06T15:19:00.171Z,60.82
2022-10-06T15:21:39.306Z,61.43
2022-10-06T15:24:16.410Z,61.79
2022-10-06T15:27:08.411Z,62.02
2022-10-06T15:29:43.097Z,62.38
2022-10-06T15:32:16.251Z,62.64
2022-10-06T15:34:49.203Z,62.92
2022-10-06T15:37:22.189Z,63.20
2022-10-06T15:39:55.027Z,63.49
2022-10-06T15:42:29.157Z,63.77
2022-10-06T15:45:06.655Z,63.74
2022-10-06T15:47:36.505Z,63.80
2022-10-06T15:50:13.989Z,63.83
2022-10-06T15:52:47.556Z,63.88
2022-10-06T15:55:20.791Z,63.97
2022-10-06T15:57:53.938Z,64.15
2022-10-06T16:00:26.950Z,64.24
2022-10-06T16:03:01.401Z,64.53
2022-10-06T16:05:36.406Z,65.03
2022-10-06T16:08:09.302Z,64.92
2022-10-06T16:10:43.572Z,64.97
2022-10-06T16:13:17.748Z,65.09
2022-10-06T16:15:58.373Z,65.28
2022-10-06T16:18:30.952Z,65.28
2022-10-06T16:21:04.248Z,65.34
2022-10-06T16:23:37.687Z,65.67
2022-10-06T16:26:10.800Z,65.92
2022-10-06T16:28:44.157Z,66.07
2022-10-06T16:31:17.500Z,66.36
2022-10-06T16:33:50.719Z,66.38
2022-10-06T16:36:25.493Z,66.61
2022-10-06T16:38:58.770Z,66.43
2022-10-06T16:41:31.763Z,66.46
2022-10-06T16:44:04.822Z,66.64
2022-10-06T16:46:38.825Z,66.76
2022-10-06T16:49:12.417Z,66.66
2022-10-06T16:51:49.334Z,66.66
2022-10-06T16:54:22.742Z,66.72
2022-10-06T16:56:55.776Z,66.85
2022-10-06T16:59:29.673Z,66.94
2022-10-06T17:02:02.622Z,66.95
2022-10-06T17:04:35.988Z,67.02
2022-10-06T17:07:09.719Z,67.07
2022-10-06T17:10:01.493Z,67.24
2022-10-06T17:12:20.150Z,67.34
2022-10-06T17:14:53.257Z,67.51
2022-10-06T17:17:26.028Z,67.70
2022-10-06T17:20:00.097Z,67.76
2022-10-06T17:22:33.243Z,67.92
2022-10-06T17:25:06.886Z,67.88
2022-10-06T17:27:42.154Z,67.86
2022-10-06T17:30:16.839Z,67.76
2022-10-06T17:32:49.826Z,67.76
2022-10-06T17:35:23.416Z,67.84
2022-10-06T17:37:56.897Z,67.89
2022-10-06T17:40:30.394Z,68.01
2022-10-06T17:43:04.868Z,68.09
2022-10-06T17:45:41.676Z,68.21
2022-10-06T17:48:14.400Z,68.42
2022-10-06T17:51:00.691Z,68.58
2022-10-06T17:53:33.640Z,68.78
2022-10-06T17:56:11.672Z,69.12
2022-10-06T17:58:46.705Z,69.56
2022-10-06T18:01:19.821Z,69.87
2022-10-06T18:03:55.575Z,70.31
2022-10-06T18:06:31.413Z,70.58
2022-10-06T18:09:07.209Z,70.89
2022-10-06T18:11:42.415Z,71.10
2022-10-06T18:14:18.612Z,71.35
2022-10-06T18:16:58.629Z,71.66
2022-10-06T18:19:36.807Z,71.84
2022-10-06T18:22:12.046Z,72.01
2022-10-06T18:24:44.937Z,72.22
2022-10-06T18:27:18.283Z,72.40
2022-10-06T18:29:51.625Z,72.50
2022-10-06T18:33:59.402Z,72.67
2022-10-06T18:37:35.754Z,73.09
2022-10-06T18:40:10.343Z,73.25
2022-10-06T18:42:43.213Z,73.47
2022-10-06T18:45:39.139Z,73.81
2022-10-06T18:48:28.581Z,74.10
2022-10-06T18:51:05.272Z,74.41
2022-10-06T18:53:39.375Z,74.72
2022-10-06T18:56:13.857Z,74.80
2022-10-06T18:58:47.534Z,74.97
2022-10-06T19:01:21.279Z,75.18
2022-10-06T19:03:57.684Z,75.32
2022-10-06T19:06:33.051Z,75.62
2022-10-06T19:09:07.143Z,75.88
2022-10-06T19:11:45.026Z,76.06
2022-10-06T19:14:26.077Z,76.11
2022-10-06T19:17:07.283Z,76.28
2022-10-06T19:19:40.371Z,76.31
2022-10-06T19:22:15.685Z,76.40
2022-10-06T19:24:51.566Z,76.53
2022-10-06T19:27:25.920Z,76.69
2022-10-06T19:29:58.878Z,76.85
2022-10-06T19:32:35.353Z,76.96
2022-10-06T19:35:10.510Z,77.16
2022-10-06T19:37:43.226Z,77.16
2022-10-06T19:40:16.405Z,77.35
2022-10-06T19:42:49.344Z,77.49
2022-10-06T19:45:22.380Z,77.81
2022-10-06T19:47:56.810Z,78.19
2022-10-06T19:50:30.593Z,78.77
2022-10-06T19:53:05.021Z,79.17
2022-10-06T19:55:39.210Z,79.53
2022-10-06T19:58:12.184Z,79.70
2022-10-06T20:00:45.047Z,80.08
2022-10-06T20:03:19.721Z,80.42
2022-10-06T20:05:52.603Z,80.69
2022-10-06T20:08:26.161Z,80.97
2022-10-06T20:11:15.039Z,81.31
2022-10-06T20:13:48.736Z,81.65
2022-10-06T20:16:22.785Z,82.04
2022-10-06T20:18:55.680Z,82.36
2022-10-06T20:21:35.217Z,82.49
2022-10-06T20:24:14.110Z,82.75
2022-10-06T20:26:50.854Z,83.15
2022-10-06T20:29:26.028Z,83.28
2022-10-06T20:31:59.767Z,83.52
2022-10-06T20:34:33.120Z,83.73
2022-10-06T20:37:07.411Z,83.87
2022-10-06T20:39:58.288Z,84.00
2022-10-06T20:42:32.024Z,84.20
2022-10-06T20:45:05.617Z,84.57
2022-10-06T20:47:38.845Z,84.71
2022-10-06T20:50:12.089Z,84.75
2022-10-06T20:52:46.746Z,84.83
2022-10-06T20:55:19.583Z,84.96
2022-10-06T20:57:53.380Z,85.16
2022-10-06T21:00:26.962Z,85.24
2022-10-06T21:03:00.112Z,85.47
2022-10-06T21:05:33.227Z,85.54
2022-10-06T21:08:06.168Z,85.65
2022-10-06T21:10:39.591Z,85.87
2022-10-06T21:13:12.788Z,85.96
2022-10-06T21:15:46.413Z,85.95
2022-10-06T21:18:20.479Z,85.89
2022-10-06T21:21:04.757Z,85.89
2022-10-06T21:23:43.542Z,85.93
2022-10-06T21:26:20.174Z,85.98
2022-10-06T21:28:53.546Z,86.12
2022-10-06T21:31:28.595Z,86.19
2022-10-06T21:34:03.204Z,86.35
2022-10-06T21:36:36.978Z,86.51
2022-10-06T21:39:10.512Z,86.48
2022-10-06T21:41:44.703Z,86.64
2022-10-06T21:44:20.204Z,86.62
2022-10-06T21:46:56.385Z,86.64
2022-10-06T21:49:29.218Z,86.75
2022-10-06T21:52:05.601Z,86.85
2022-10-06T21:54:40.282Z,86.92
2022-10-06T21:57:14.718Z,86.98
2022-10-06T21:59:48.178Z,87.10
2022-10-06T22:02:21.133Z,87.22
2022-10-06T22:04:54.156Z,87.34
2022-10-06T22:07:27.438Z,87.44
2022-10-06T22:10:00.335Z,87.44
2022-10-06T22:12:33.981Z,87.40
2022-10-06T22:15:08.756Z,87.53
2022-10-06T22:17:42.044Z,87.53
2022-10-06T22:20:15.292Z,87.70
2022-10-06T22:22:48.281Z,87.70
2022-10-06T22:25:21.053Z,87.74
2022-10-06T22:27:54.061Z,87.75
2022-10-06T22:30:26.915Z,87.91
2022-10-06T22:33:00.313Z,87.90
2022-10-06T22:35:33.319Z,87.97
2022-10-06T22:38:06.594Z,87.90
2022-10-06T22:40:40.354Z,87.89
2022-10-06T22:43:13.087Z,87.91
2022-10-06T22:45:45.989Z,87.96
2022-10-06T22:48:19.051Z,87.92
2022-10-06T22:50:52.341Z,88.06
2022-10-06T22:53:28.441Z,88.08
2022-10-06T22:56:02.224Z,88.10
2022-10-06T22:58:35.030Z,88.19
2022-10-06T23:01:15.008Z,88.32
2022-10-06T23:03:48.476Z,88.33
2022-10-06T23:06:21.611Z,88.53
2022-10-06T23:08:55.013Z,88.47
2022-10-06T23:11:28.359Z,88.67
2022-10-06T23:14:02.026Z,88.75
2022-10-06T23:16:36.212Z,88.77
2022-10-06T23:19:11.483Z,88.77
2022-10-06T23:21:43.782Z,88.81
2022-10-06T23:24:16.449Z,88.99
2022-10-06T23:26:49.374Z,89.07
2022-10-06T23:29:22.207Z,89.16
2022-10-06T23:31:55.215Z,89.09
2022-10-06T23:34:28.176Z,89.21
2022-10-06T23:37:01.157Z,89.06
2022-10-06T23:39:34.060Z,89.04
2022-10-06T23:42:08.780Z,88.99
2022-10-06T23:44:41.897Z,88.83
2022-10-06T23:47:14.903Z,88.95
2022-10-06T23:49:47.868Z,89.08
2022-10-06T23:52:20.816Z,89.14
2022-10-06T23:54:55.338Z,89.22
2022-10-06T23:57:28.263Z,89.35
